Tiempo atmosférico en la estación meteorológica de Almudébar, Huesca (390 m.)



Fecha
DESCASC
Temp. máxima en grados centígrados (hora)
DESCASC
Temp. mínima en grados centígrados (hora)
DESCASC
Temp. media en grados centígrados
DESCASC
Racha de viento máxima en m/sg (hora)
DESCASC
Velocidad máxima media en intervalos de 10 minutos(hora)
DESCASC
Precipitaciones diarias en mm
DESCASC
Precipitaciones de 00:00 a 06:00 en mm
DESCASC
Precipitaciones de 06:00 a 12:00 en mm
DESCASC
Precipitaciones de 12:00 a 18:00 en mm
DESCASC
Precipitaciones de 18:00 a 24:00 en mm
DESCASC

Gráficas

Temp. máximas Temp. mínimas Temp. medias Precipitaciones Rachas de viento máximas Velocidades máximas media en intervalos de 10 minutos

Datos horarios

Fecha y hora oficial Temperatura (ºC) Velocidad del viento (km/h) Dirección del viento Racha (km/h) Dirección de racha Precipitación (mm) Presión (hPa) Tendencia (hPa) Humedad (%)
2018-05-23 23:00:00 16 8 Este 18 Nordeste 0 -- -- 91
2018-05-23 22:00:00 16.4 12 Este 21 Sudeste 0 -- -- 90
2018-05-23 21:00:00 17.1 14 Sudeste 20 Sudeste 0 -- -- 88
2018-05-23 20:00:00 17.3 4 Norte 41 Sudoeste 7.4 -- -- 84
2018-05-23 19:00:00 19.4 22 Oeste 41 Oeste 2.8 -- -- 77
2018-05-23 18:00:00 25.2 9 Este 19 Sudeste 0 -- -- 55
2018-05-23 17:00:00 24.8 7 Este 15 Este 0 -- -- 52
2018-05-23 16:00:00 24.6 8 Este 15 Este 0 -- -- 53
2018-05-23 15:00:00 23.5 7 Este 16 Este 0 -- -- 55
2018-05-23 14:00:00 22.9 8 Sudeste 19 Sudeste 0 -- -- 61
2018-05-23 13:00:00 22.2 12 Sudeste 19 Sudeste 0 -- -- 66
2018-05-23 12:00:00 21.1 13 Sudeste 24 Sudeste 0 -- -- 70
2018-05-23 11:00:00 19.7 9 Este 17 Sudeste 0 -- -- 71
2018-05-23 10:00:00 18 6 Sudeste 11 Sudeste 0 -- -- 80
2018-05-23 09:00:00 15.3 2 Este 6 Este 0 -- -- 89
2018-05-23 08:00:00 12.3 0 Calma 6 Nordeste 0 -- -- 88
2018-05-23 07:00:00 10.9 3 Nordeste 12 Este 0 -- -- 88
2018-05-23 06:00:00 11.3 9 Nordeste 14 Nordeste 0 -- -- 87
2018-05-23 05:00:00 11.8 11 Este 13 Nordeste 0 -- -- 87
2018-05-23 04:00:00 12.3 8 Nordeste 9 Nordeste 0 -- -- 86
2018-05-23 03:00:00 12.9 0 Calma 17 Nordeste 0 -- -- 85
2018-05-23 02:00:00 13.6 13 Este 20 Este 0 -- -- 82
2018-05-23 01:00:00 14.1 16 Este 23 Este 0 -- -- 79
2018-05-23 00:00:00 15 12 Este 18 Este 0 -- -- 77
2018-05-22 23:00:00 16.2 11 Este 16 Nordeste 0 -- -- 76
2018-05-22 22:00:00 18 5 Nordeste 23 Sudeste 0 -- -- 66
2018-05-22 21:00:00 22.1 6 Sudoeste 10 Oeste 0 -- -- 50
2018-05-22 20:00:00 24.1 6 Sudoeste 17 Sudoeste 0 -- -- 44
2018-05-22 19:00:00 24.5 11 Sudoeste 21 Sudoeste 0 -- -- 41
2018-05-22 18:00:00 24.5 12 Sudoeste 26 Sudoeste 0 -- -- 38
2018-05-22 17:00:00 24.5 12 Oeste 22 Sudoeste 0 -- -- 40
2018-05-22 16:00:00 24 9 Oeste 21 Noroeste 0 -- -- 41
2018-05-22 15:00:00 23.4 8 Oeste 18 Sudoeste 0 -- -- 53
2018-05-22 14:00:00 22.3 7 Sudoeste 19 Sudoeste 0 -- -- 57
2018-05-22 13:00:00 20.8 9 Sur 21 Sudoeste 0 -- -- 72
2018-05-22 12:00:00 19.4 9 Sudoeste 21 Oeste 0 -- -- 74
2018-05-22 11:00:00 17.7 13 Oeste 24 Oeste 0 -- -- 77
2018-05-22 10:00:00 15.9 8 Oeste 17 Oeste 0 -- -- 87
2018-05-22 09:00:00 13.6 5 Oeste 10 Oeste 0 -- -- 96
2018-05-22 08:00:00 11.1 3 Oeste 6 Sudoeste 0 -- -- 96
2018-05-22 07:00:00 9.6 4 Oeste 8 Noroeste 0 -- -- 95
2018-05-22 06:00:00 10 3 Noroeste 4 Noroeste 0 -- -- 95
2018-05-22 05:00:00 10.2 2 Oeste 4 Sur 0 -- -- 94
2018-05-22 04:00:00 10.6 0 Calma 3 Sur 0 -- -- 94
2018-05-22 03:00:00 11.4 0 Calma 6 Nordeste 0 -- -- 94
2018-05-22 02:00:00 12.3 3 Norte 6 Noroeste 0 -- -- 93
2018-05-22 01:00:00 12.9 3 Norte 17 Sudeste 0 -- -- 92
2018-05-22 00:00:00 13.5 13 Sudeste 23 Sudeste 0 -- -- 92
2018-05-21 23:00:00 14 12 Este 19 Este 0 -- -- 91
2018-05-21 22:00:00 14.3 6 Noroeste 21 Este 0 -- -- 90
2018-05-21 21:00:00 14.6 14 Nordeste 21 Este 2.6 -- -- 90
2018-05-21 20:00:00 14.9 13 Nordeste 18 Nordeste 5.4 -- -- 89
2018-05-21 19:00:00 15.1 14 Sudoeste 52 Sudoeste 10.4 -- -- 83
2018-05-21 18:00:00 22.8 5 Sudeste 18 Sudeste 0 -- -- 55
2018-05-21 17:00:00 24.1 8 Sudeste 19 Sudeste 0 -- -- 48
2018-05-21 16:00:00 23.8 10 Sudeste 21 Sudeste 0 -- -- 53
2018-05-21 15:00:00 23 12 Sudeste 26 Sudeste 0 -- -- 52
2018-05-21 14:00:00 22.1 9 Este 19 Este 0 -- -- 63
2018-05-21 13:00:00 19.7 6 Sudeste 18 Sudeste 0 -- -- 67
2018-05-21 12:00:00 21.2 10 Este 20 Este 0 -- -- 62
2018-05-21 11:00:00 20.1 13 Sudeste 20 Sudeste 0 -- -- 68
2018-05-21 10:00:00 18.1 12 Este 18 Este 0 -- -- 70
2018-05-21 09:00:00 14.8 0 Calma 9 Sudoeste 0 -- -- 85
2018-05-21 08:00:00 13.7 3 Sudeste 10 Este 0 -- -- 90
2018-05-21 07:00:00 12.7 7 Este 11 Este 0 -- -- 89
2018-05-21 06:00:00 13.2 5 Este 9 Este 0 -- -- 88
2018-05-21 05:00:00 13.3 4 Nordeste 13 Este 0 -- -- 88
2018-05-21 04:00:00 13.2 8 Este 15 Este 0 -- -- 89
2018-05-21 03:00:00 13.5 5 Este 13 Nordeste 0 -- -- 86
2018-05-21 02:00:00 13.7 10 Este 18 Este 0 -- -- 85
2018-05-21 01:00:00 13.4 8 Este 13 Este 0 -- -- 85
2018-05-21 00:00:00 13.7 4 Este 13 Nordeste 0 -- -- 84
2018-05-20 23:00:00 14.6 12 Nordeste 16 Nordeste 0 -- -- 81
2018-05-20 22:00:00 15.7 9 Nordeste 16 Nordeste 0 -- -- 80
2018-05-20 21:00:00 17 7 Este 17 Este 0 -- -- 75
2018-05-20 20:00:00 17.6 14 Este 31 Este 0 -- -- 79
2018-05-20 19:00:00 18.5 21 Este 31 Este 0 -- -- 74
2018-05-20 18:00:00 20.9 14 Sudeste 23 Sudeste 0 -- -- 68
2018-05-20 17:00:00 21.9 11 Nordeste 19 Norte 0 -- -- 57
2018-05-20 16:00:00 22.3 6 Sudeste 12 Este 0 -- -- 57
2018-05-20 15:00:00 21.3 12 Sur 17 Sur 0 -- -- 60
2018-05-20 14:00:00 21.3 3 Sur 13 Sudoeste 0 -- -- 60
2018-05-20 13:00:00 20 3 Sur 11 Sudoeste 0 -- -- 65
2018-05-20 12:00:00 18.6 4 Sudeste 12 Sur 0 -- -- 69
2018-05-20 11:00:00 17.4 3 Sur 10 Norte 0 -- -- 77
2018-05-20 10:00:00 15.3 4 Noroeste 7 Noroeste 0 -- -- 87
2018-05-20 09:00:00 12.8 3 Noroeste 5 Noroeste 0 -- -- 92
2018-05-20 08:00:00 10.4 2 Oeste 6 Norte 0 -- -- 94
2018-05-20 07:00:00 9.2 4 Norte 9 Nordeste 0 -- -- 92
2018-05-20 06:00:00 10.2 3 Nordeste 5 Nordeste 0 -- -- 91
2018-05-20 05:00:00 10.7 7 Nordeste 9 Este 0 -- -- 91
2018-05-20 04:00:00 11.2 4 Nordeste 6 Nordeste 0 -- -- 89
2018-05-20 03:00:00 11.9 0 Calma 6 Este 0 -- -- 89
2018-05-20 02:00:00 13.1 4 Nordeste 10 Nordeste 0 -- -- 85
2018-05-20 01:00:00 14.2 3 Este 14 Nordeste 0 -- -- 83
2018-05-20 00:00:00 15.2 11 Este 14 Este 0 -- -- 81
2018-05-19 23:00:00 15.3 8 Sur 28 Este 0 -- -- 81
2018-05-19 22:00:00 16 18 Este 28 Este 0 -- -- 74
2018-05-19 21:00:00 17.8 9 Este 22 Nordeste 0 -- -- 70
2018-05-19 20:00:00 20.9 15 Este 23 Este 0 -- -- 58
2018-05-19 19:00:00 21.5 5 Norte 14 Noroeste 0 -- -- 50
2018-05-19 18:00:00 22.2 5 Norte 9 Este 0 -- -- 55
2018-05-19 17:00:00 22.4 5 Este 27 Sur 0 -- -- 58
2018-05-19 16:00:00 23.8 14 Sur 27 Sudeste 0 -- -- 57
2018-05-19 15:00:00 24 8 Sudoeste 24 Sudoeste 0 -- -- 53
2018-05-19 14:00:00 22.8 7 Sudoeste 16 Sudoeste 0 -- -- 57
2018-05-19 13:00:00 21.5 6 Sur 17 Sudoeste 0 -- -- 59
2018-05-19 12:00:00 20 7 Sudoeste 13 Oeste 0 -- -- 67
2018-05-19 11:00:00 18.4 6 Oeste 14 Oeste 0 -- -- 72
2018-05-19 10:00:00 16.5 5 Sudoeste 9 Oeste 0 -- -- 80
2018-05-19 09:00:00 13.7 7 Noroeste 10 Noroeste 0 -- -- 91
2018-05-19 08:00:00 12.7 6 Oeste 14 Oeste 0 -- -- 92
2018-05-19 07:00:00 12.7 8 Noroeste 12 Noroeste 0 -- -- 92
2018-05-19 06:00:00 13.6 0 Calma 6 Nordeste 0 -- -- 88
2018-05-19 05:00:00 14.1 5 Nordeste 8 Nordeste 0 -- -- 86
2018-05-19 04:00:00 14.1 5 Este 11 Este 0 -- -- 85
2018-05-19 03:00:00 14.4 8 Este 12 Este 0 -- -- 85
2018-05-19 02:00:00 14.7 4 Este 12 Nordeste 0 -- -- 84
2018-05-19 01:00:00 15.3 8 Nordeste 12 Nordeste 0 -- -- 81
2018-05-19 00:00:00 14.8 7 Sudeste 10 Noroeste 0 -- -- 88
2018-05-18 23:00:00 14.5 6 Noroeste 13 Sudoeste 0 -- -- 88
2018-05-18 22:00:00 15.3 3 Sudeste 6 Sudeste 0 -- -- 83
2018-05-18 21:00:00 16.2 3 Oeste 13 Nordeste 0 -- -- 80
2018-05-18 20:00:00 17.2 6 Norte 18 Noroeste 0 -- -- 71
2018-05-18 19:00:00 16.6 10 Noroeste 24 Noroeste 0 -- -- 79
2018-05-18 18:00:00 17.9 13 Noroeste 24 Norte 0 -- -- 67
2018-05-18 17:00:00 19.4 13 Norte 23 Noroeste 0 -- -- 62
2018-05-18 16:00:00 20.9 8 Noroeste 17 Sur 0.8 -- -- 64
2018-05-18 15:00:00 22.5 12 Sur 19 Sur 0 -- -- 57
2018-05-18 14:00:00 21.6 11 Sudoeste 17 Sur 0 -- -- 59
2018-05-18 13:00:00 20.9 6 Sudoeste 15 Sudeste 0 -- -- 56
2018-05-18 12:00:00 19.7 6 Sur 12 Sur 0 -- -- 69
2018-05-18 11:00:00 17.6 5 Sudoeste 13 Sudoeste 0 -- -- 72
2018-05-18 10:00:00 15.5 2 Oeste 5 Noroeste 0 -- -- 80
2018-05-18 09:00:00 14.1 5 Noroeste -- -- -- -- -- 88
2018-05-18 08:00:00 13.5 2 Noroeste 4 Noroeste 0 -- -- 88
2018-05-18 07:00:00 12.8 4 Noroeste 6 Noroeste 0 -- -- 89
2018-05-18 06:00:00 12.9 4 Este 12 Este 0 -- -- 87
2018-05-18 05:00:00 13.3 6 Este 17 Este 0 -- -- 86
2018-05-18 04:00:00 13.6 14 Este 18 Este 0 -- -- 86
2018-05-18 03:00:00 13.6 4 Este 13 Este 0 -- -- 84
2018-05-18 02:00:00 14.2 4 Nordeste 18 Este 0 -- -- 82
2018-05-18 01:00:00 14.5 12 Nordeste 20 Nordeste 0 -- -- 80
2018-05-18 00:00:00 14.7 14 Este 24 Este 0 -- -- 79
2018-05-17 23:00:00 16.1 16 Este 27 Este 0 -- -- 73
2018-05-17 22:00:00 17.3 14 Este 25 Este 0 -- -- 68
2018-05-17 21:00:00 19.7 10 Oeste 21 Oeste 0 -- -- 61
2018-05-17 20:00:00 23.8 7 Oeste 15 Noroeste 0 -- -- 48
2018-05-17 19:00:00 24.6 7 Noroeste 18 Sudoeste 0 -- -- 42
2018-05-17 18:00:00 24.7 6 Noroeste 20 Noroeste 0 -- -- 42
2018-05-17 17:00:00 24.7 9 Sudoeste 19 Oeste 0 -- -- 41
2018-05-17 16:00:00 23.8 6 Sudoeste 15 Oeste 0 -- -- 47
2018-05-17 15:00:00 23.1 3 Norte 14 Sur 0 -- -- 51
2018-05-17 14:00:00 21.6 6 Sudoeste 15 Sudoeste 0 -- -- 55
2018-05-17 13:00:00 20.4 5 Sudoeste 15 Sur 0 -- -- 60
2018-05-17 12:00:00 18.8 7 Sudeste 15 Sudeste 0 -- -- 66
2018-05-17 11:00:00 16.4 5 Sudoeste 15 Noroeste 0 -- -- 74
2018-05-17 10:00:00 13.8 5 Noroeste 11 Noroeste 0 -- -- 81
2018-05-17 09:00:00 11.5 8 Noroeste 12 Oeste 0 -- -- 87
2018-05-17 08:00:00 10 6 Oeste 10 Oeste 0 -- -- 91
2018-05-17 07:00:00 9.2 8 Noroeste 13 Noroeste 0 -- -- 92
2018-05-17 06:00:00 9.2 6 Noroeste 14 Oeste 0 -- -- 91
2018-05-17 05:00:00 9.2 8 Noroeste 15 Oeste 0 -- -- 91
2018-05-17 04:00:00 9.7 6 Oeste 17 Oeste 0 -- -- 90
2018-05-17 03:00:00 10.1 9 Oeste 17 Noroeste 0 -- -- 90
2018-05-17 02:00:00 10.7 8 Oeste 19 Oeste 0 -- -- 87
2018-05-17 01:00:00 11.4 14 Noroeste 26 Oeste 0 -- -- 85
2018-05-17 00:00:00 13 11 Oeste 21 Noroeste 0 -- -- 79
2018-05-16 23:00:00 15.1 7 Oeste 19 Oeste 0 -- -- 71
2018-05-16 22:00:00 16.5 7 Oeste 18 Noroeste 0 -- -- 66
2018-05-16 21:00:00 19.5 6 Oeste 19 Oeste 0 -- -- 60
2018-05-16 20:00:00 22.6 9 Oeste 22 Oeste 0 -- -- 52
2018-05-16 19:00:00 23.3 12 Oeste 25 Oeste 0 -- -- 44
2018-05-16 18:00:00 23.8 13 Oeste 24 Oeste 0 -- -- 42
2018-05-16 17:00:00 23.7 13 Noroeste 25 Oeste 0 -- -- 44
2018-05-16 16:00:00 23 12 Sudoeste 22 Sudoeste 0 -- -- 48
2018-05-16 15:00:00 22 13 Sudoeste 22 Sudoeste 0 -- -- 49
2018-05-16 14:00:00 20.4 14 Oeste 26 Oeste 0 -- -- 51
2018-05-16 13:00:00 18.9 11 Oeste 27 Sudoeste 0 -- -- 58
2018-05-16 12:00:00 17.1 12 Oeste 25 Oeste 0 -- -- 63
2018-05-16 11:00:00 14.7 15 Oeste 27 Oeste 0 -- -- 68
2018-05-16 10:00:00 12.4 17 Oeste -- -- -- -- -- 72
2018-05-16 09:00:00 10.5 11 Oeste 24 Oeste 0 -- -- 79
2018-05-16 08:00:00 8.5 9 Oeste 20 Noroeste 0 -- -- 83
2018-05-16 07:00:00 7.5 9 Oeste 20 Oeste 0 -- -- 85
2018-05-16 06:00:00 7.9 9 Oeste 24 Oeste 0 -- -- 84
2018-05-16 05:00:00 8.3 11 Oeste 23 Oeste 0 -- -- 83
2018-05-16 04:00:00 9 12 Oeste 23 Oeste 0 -- -- 80
2018-05-16 03:00:00 9.4 11 Oeste 26 Oeste 0 -- -- 80
2018-05-16 02:00:00 9.8 11 Oeste 21 Oeste 0 -- -- 78
2018-05-16 01:00:00 9.9 9 Oeste 22 Oeste 0 -- -- 79
2018-05-16 00:00:00 10.8 10 Oeste 24 Oeste 0 -- -- 75
2018-05-15 23:00:00 11.6 10 Oeste 25 Oeste 0 -- -- 72
2018-05-15 22:00:00 12.7 12 Oeste 29 Oeste 0 -- -- 68
2018-05-15 21:00:00 15.6 12 Oeste 30 Oeste 0 -- -- 61
2018-05-15 20:00:00 17.2 14 Oeste 32 Oeste 0 -- -- 59
2018-05-15 19:00:00 19.2 15 Oeste 41 Oeste 0 -- -- 55
2018-05-15 18:00:00 20.6 21 Oeste 36 Oeste 0 -- -- 50
2018-05-15 17:00:00 22.6 14 Oeste 26 Noroeste 0 -- -- 42
2018-05-15 16:00:00 21.8 13 Noroeste 29 Noroeste 0 -- -- 43
2018-05-15 15:00:00 21.2 14 Noroeste 27 Noroeste 0 -- -- 46
2018-05-15 14:00:00 20 19 Oeste 42 Sudoeste 0 -- -- 46
2018-05-15 13:00:00 18.9 14 Oeste 26 Oeste 0 -- -- 47
2018-05-15 12:00:00 17.6 13 Oeste 28 Oeste 0 -- -- 53
2018-05-15 11:00:00 15.8 17 Noroeste 32 Noroeste 0 -- -- 55
2018-05-15 10:00:00 14.2 23 Noroeste 32 Noroeste 0 -- -- 61
2018-05-15 09:00:00 11.2 21 Oeste 35 Noroeste 0 -- -- 72
2018-05-15 08:00:00 8.8 16 Oeste 32 Oeste 0 -- -- 80
2018-05-15 07:00:00 7.6 13 Oeste 28 Oeste 0 -- -- 82
2018-05-15 06:00:00 7.8 12 Oeste 27 Oeste 0 -- -- 81
2018-05-15 05:00:00 7.7 11 Oeste 26 Noroeste 0 -- -- 81
2018-05-15 04:00:00 8.1 15 Oeste 27 Oeste 0 -- -- 78
2018-05-15 03:00:00 8 17 Oeste 28 Noroeste 0 -- -- 77
2018-05-15 02:00:00 8.1 11 Oeste 23 Oeste 0 -- -- 73
2018-05-15 01:00:00 8.1 14 Oeste 27 Noroeste 0 -- -- 71
2018-05-15 00:00:00 8.5 13 Oeste 32 Noroeste 0 -- -- 67
2018-05-14 23:00:00 9.3 20 Noroeste 32 Oeste 0 -- -- 64
2018-05-14 22:00:00 10.2 25 Noroeste 41 Oeste 0 -- -- 63
2018-05-14 21:00:00 11.8 26 Noroeste 42 Noroeste 0 -- -- 55
2018-05-14 20:00:00 14 30 Noroeste 52 Noroeste 0 -- -- 50
2018-05-14 19:00:00 15.4 34 Noroeste 58 Noroeste 0 -- -- 47
2018-05-14 18:00:00 15.3 30 Noroeste 54 Noroeste 0 -- -- 48
2018-05-14 17:00:00 15.9 33 Oeste 55 Oeste 0 -- -- 48
2018-05-14 16:00:00 15.7 30 Oeste 53 Oeste 0 -- -- 51
2018-05-14 15:00:00 14.5 41 Noroeste 60 Oeste 0 -- -- 49
2018-05-14 14:00:00 13.9 32 Noroeste 46 Oeste 0 -- -- 47
2018-05-14 13:00:00 14.7 27 Noroeste 53 Noroeste 0 -- -- 49
2018-05-14 12:00:00 12.5 30 Oeste 52 Noroeste 0 -- -- 57
2018-05-14 11:00:00 11.8 27 Oeste 48 Oeste 0 -- -- 59
2018-05-14 10:00:00 10.4 26 Oeste 45 Noroeste 0 -- -- 69
2018-05-14 09:00:00 9.5 16 Oeste 37 Oeste 0 -- -- 74
2018-05-14 08:00:00 7.1 21 Oeste 33 Noroeste 0 -- -- 80
2018-05-14 07:00:00 6.1 15 Oeste 38 Oeste 0 -- -- 84
2018-05-14 06:00:00 6.4 21 Oeste 34 Oeste 0 -- -- 84
2018-05-14 05:00:00 7 19 Oeste 34 Oeste 0 -- -- 81
2018-05-14 04:00:00 7.5 20 Oeste 40 Oeste 0 -- -- 77
2018-05-14 03:00:00 7.3 16 Oeste 32 Oeste 0 -- -- 80
2018-05-14 02:00:00 8.2 16 Oeste 30 Oeste 0 -- -- 73
2018-05-14 01:00:00 8.9 13 Oeste 26 Oeste 0 -- -- 69
2018-05-11 20:00:00 -- -- -- -- -- -- -- -- --
2018-05-11 19:00:00 23.6 6 Sur 9 Sudeste 0 -- -- 49
2018-05-11 18:00:00 24.5 6 Noroeste 13 Nordeste 0 -- -- 41
2018-05-11 17:00:00 24.8 3 Sudeste 17 Noroeste 0 -- -- 43
2018-05-11 16:00:00 23.6 4 Oeste 15 Este 0 -- -- 46
2018-05-11 15:00:00 22.5 6 Este 18 Este 0 -- -- 52
2018-05-11 14:00:00 21.5 7 Este 18 Sudeste 0 -- -- 50
2018-05-11 13:00:00 20.2 9 Sudeste 18 Este 0 -- -- 51
2018-05-11 12:00:00 18.4 11 Este 18 Sudeste 0 -- -- 56
2018-05-11 11:00:00 16.7 10 Sudeste 17 Este 0 -- -- 64
2018-05-11 10:00:00 14.3 10 Este 14 Este 0 -- -- 74
2018-05-11 09:00:00 10.9 3 Sudeste 6 Este 0 -- -- 85
2018-05-11 08:00:00 7.8 4 Nordeste 7 Nordeste 0 -- -- 91
2018-05-11 07:00:00 5.5 5 Nordeste 8 Nordeste 0 -- -- 92
2018-05-11 06:00:00 5 2 Noroeste 8 Sur 0 -- -- 91
2018-05-11 05:00:00 6.1 2 Nordeste 11 Norte 0 -- -- 88
2018-05-11 04:00:00 7.2 8 Noroeste 12 Noroeste 0 -- -- 87
2018-05-11 03:00:00 7.3 6 Noroeste 14 Noroeste 0 -- -- 87
2018-05-11 02:00:00 8.4 10 Noroeste 15 Oeste 0 -- -- 85
2018-05-11 01:00:00 9.2 6 Noroeste 17 Oeste 0 -- -- 82
2018-05-11 00:00:00 10.3 6 Oeste 15 Sudoeste 0 -- -- 78
2018-05-10 23:00:00 11.2 10 Oeste 19 Oeste 0 -- -- 76
2018-05-10 22:00:00 12.4 12 Oeste 29 Oeste 0 -- -- 71
2018-05-10 21:00:00 14.1 19 Oeste 32 Oeste 0 -- -- 65
2018-05-10 20:00:00 17 17 Oeste 44 Oeste 0 -- -- 58
2018-05-10 19:00:00 18.8 22 Oeste 48 Oeste 0 -- -- 53
2018-05-10 18:00:00 19.9 28 Oeste 50 Oeste 0 -- -- 51
2018-05-10 17:00:00 21.1 24 Oeste 51 Oeste 0 -- -- 46
2018-05-10 16:00:00 21.6 22 Oeste 45 Oeste 0 -- -- 46
2018-05-10 15:00:00 21.5 19 Oeste 43 Oeste 0 -- -- 46
2018-05-10 14:00:00 21.2 10 Oeste 26 Noroeste 0 -- -- 42
2018-05-10 13:00:00 20 13 Noroeste 33 Oeste 0 -- -- 42
2018-05-10 12:00:00 17.9 20 Noroeste 33 Oeste 0 -- -- 49
2018-05-10 11:00:00 13.9 21 Oeste 43 Oeste 0 -- -- 64
2018-05-10 10:00:00 12.7 26 Oeste 48 Oeste 0 -- -- 70
2018-05-10 09:00:00 12.1 26 Oeste 46 Oeste 0 -- -- 72
2018-05-10 08:00:00 11.4 24 Oeste 51 Oeste 0 -- -- 75
2018-05-10 07:00:00 12.1 26 Oeste 41 Oeste 0 -- -- 71
2018-05-10 06:00:00 11.9 20 Oeste 37 Noroeste 0 -- -- 71
2018-05-10 05:00:00 12.4 24 Noroeste 39 Noroeste 0 -- -- 69
2018-05-10 04:00:00 12.1 23 Oeste 41 Noroeste 0 -- -- 73
2018-05-10 03:00:00 12.3 22 Oeste 39 Oeste 0 -- -- 74
2018-05-10 02:00:00 12.6 18 Oeste 38 Oeste 0 -- -- 74
2018-05-10 01:00:00 12.6 20 Oeste 34 Oeste 0 -- -- 78
2018-05-10 00:00:00 13.1 17 Oeste 37 Oeste 0 -- -- 78
2018-05-09 23:00:00 13.7 21 Oeste 39 Oeste 0 -- -- 75
2018-05-09 22:00:00 15 20 Oeste 40 Oeste 0 -- -- 70
2018-05-09 21:00:00 16.9 20 Oeste 38 Oeste 0 -- -- 64
2018-05-09 20:00:00 19.7 19 Oeste 41 Oeste 0 -- -- 57
2018-05-09 19:00:00 21.1 24 Oeste 41 Oeste 0 -- -- 53
2018-05-09 18:00:00 22.4 24 Oeste 41 Oeste 0 -- -- 51
2018-05-09 17:00:00 23.1 19 Oeste 37 Oeste 0 -- -- 49
2018-05-09 16:00:00 23.1 17 Oeste 35 Oeste 0 -- -- 50
2018-05-09 15:00:00 22 16 Oeste 31 Oeste 0 -- -- 52
2018-05-09 14:00:00 21.5 13 Oeste 26 Oeste 0 -- -- 53
2018-05-09 13:00:00 19.9 13 Oeste 24 Oeste 0 -- -- 57
2018-05-09 12:00:00 18.3 15 Oeste 28 Oeste 0 -- -- 62
2018-05-09 11:00:00 16.1 18 Oeste 33 Oeste 0 -- -- 67
2018-05-09 10:00:00 14.1 23 Oeste -- -- -- -- -- 73
2018-05-09 09:00:00 12.2 15 Oeste 31 Oeste 0 -- -- 79
2018-05-09 08:00:00 10.3 10 Oeste 31 Oeste 0 -- -- 87
2018-05-09 07:00:00 10.1 18 Oeste 40 Oeste 0 -- -- 88
2018-05-09 06:00:00 10.5 23 Oeste 39 Noroeste 0 -- -- 87
2018-05-09 05:00:00 11 21 Oeste 36 Oeste 0 -- -- 88
2018-05-09 04:00:00 11.2 21 Oeste 34 Noroeste 0 -- -- 88
2018-05-09 03:00:00 11.7 21 Oeste 36 Oeste 0 -- -- 88
2018-05-09 02:00:00 12.1 19 Oeste 33 Oeste 0 -- -- 87
2018-05-09 01:00:00 12.4 10 Oeste 30 Oeste 0 -- -- 86
2018-05-09 00:00:00 13.1 23 Oeste 39 Oeste 0 -- -- 84
2018-05-08 23:00:00 13.8 20 Oeste 37 Noroeste 0 -- -- 80
2018-05-08 22:00:00 15.3 26 Oeste 42 Oeste 0 -- -- 75
2018-05-08 21:00:00 17.6 18 Oeste 39 Oeste 0 -- -- 69
2018-05-08 20:00:00 21.2 20 Oeste 42 Oeste 0 -- -- 59
2018-05-08 19:00:00 23.1 24 Oeste 41 Oeste 0 -- -- 55
2018-05-08 18:00:00 25.1 21 Oeste 37 Oeste 0 -- -- 52
2018-05-08 17:00:00 25.5 27 Sudoeste 40 Sudoeste 0 -- -- 49
2018-05-08 16:00:00 24.9 8 Oeste 21 Sudoeste 0 -- -- 54
2018-05-08 15:00:00 23.7 6 Sudoeste 15 Sudoeste 0 -- -- 56
2018-05-08 14:00:00 21.3 5 Noroeste 13 Oeste 0 -- -- 56
2018-05-08 13:00:00 19.6 4 Noroeste 12 Oeste 0 -- -- 67
2018-05-08 12:00:00 17.7 4 Oeste 10 Oeste 0 -- -- 76
2018-05-08 11:00:00 15.7 2 Oeste 10 Oeste 0 -- -- 83
2018-05-08 10:00:00 14.9 3 Noroeste 9 Sudeste 0 -- -- 86
2018-05-08 09:00:00 14 2 Este 9 Nordeste 0 -- -- 90
2018-05-08 08:00:00 12.7 3 Nordeste 8 Sur 0 -- -- 91
2018-05-08 07:00:00 12.9 0 Calma 11 Nordeste 0 -- -- 90
2018-05-08 06:00:00 12.8 4 Oeste 9 Sudeste 0 -- -- 90
2018-05-08 05:00:00 13.4 5 Este 12 Noroeste 0 -- -- 86
2018-05-08 04:00:00 13.5 5 Noroeste 12 Sudoeste 0 -- -- 87
2018-05-08 03:00:00 13.4 6 Sudoeste 9 Sudoeste 0 -- -- 88
2018-05-08 02:00:00 13.5 5 Sudoeste 13 Noroeste 0 -- -- 87
2018-05-08 01:00:00 14 10 Noroeste 14 Noroeste 0 -- -- 86
2018-05-08 00:00:00 15.7 5 Norte 9 Nordeste 0 -- -- 82
2018-05-07 23:00:00 16.4 4 Este 11 Este 0 -- -- 78
2018-05-07 22:00:00 17.2 9 Este 26 Este 0 -- -- 75
2018-05-07 21:00:00 18 14 Este 29 Norte 0 -- -- 69
2018-05-07 20:00:00 19.4 16 Norte 27 Norte 0 -- -- 72
2018-05-07 19:00:00 22.8 6 Norte 15 Noroeste 0 -- -- 61
2018-05-07 18:00:00 23.6 6 Norte 14 Noroeste 0 -- -- 54
2018-05-07 17:00:00 22.6 8 Norte 14 Noroeste 0 -- -- 57
2018-05-07 16:00:00 23.8 6 Oeste 20 Sudoeste 0 -- -- 54
2018-05-07 15:00:00 23.2 11 Sudoeste 24 Sudoeste 0 -- -- 56
2018-05-07 14:00:00 22 15 Sudoeste 23 Sudoeste 0 -- -- 63
2018-05-07 13:00:00 20.9 11 Sudoeste 17 Sudoeste 0 -- -- 68
2018-05-07 12:00:00 19.4 9 Sudoeste 14 Sudoeste 0 -- -- 68
2018-05-07 11:00:00 16.3 2 Sur 5 Sur 0 -- -- 85
2018-05-07 10:00:00 15.4 2 Sudeste 5 Sudeste 0 -- -- 90
2018-05-07 09:00:00 14.5 2 Sudeste 5 Sudeste 0 -- -- 90
2018-05-07 08:00:00 14.1 4 Norte 7 Noroeste 0 -- -- 90
2018-05-07 07:00:00 14 0 Calma 7 Nordeste 0 -- -- 89
2018-05-07 06:00:00 14 5 Nordeste 14 Este 0 -- -- 89
2018-05-07 05:00:00 13.8 9 Nordeste 15 Nordeste 0 -- -- 87
2018-05-07 04:00:00 13.9 12 Nordeste 15 Nordeste 0 -- -- 86
2018-05-07 03:00:00 14 3 Norte 5 Norte 0 -- -- 85
2018-05-07 02:00:00 13.9 3 Este 10 Este 0 -- -- 84
2018-05-07 01:00:00 14.4 5 Este 9 Este 0 -- -- 83
2018-05-07 00:00:00 15.6 2 Norte 6 Sudeste 0 -- -- 81
2018-05-06 23:00:00 16.5 0 Calma 9 Nordeste 0 -- -- 78
2018-05-06 22:00:00 17.5 8 Nordeste 12 Nordeste 0 -- -- 75
2018-05-06 21:00:00 19.4 10 Nordeste 15 Nordeste 0 -- -- 72
2018-05-06 20:00:00 21 9 Este 15 Este 0 -- -- 65
2018-05-06 19:00:00 22.9 10 Sudeste 17 Sudeste 0 -- -- 57
2018-05-06 18:00:00 24.2 4 Sur 12 Sudoeste 0 -- -- 42
2018-05-06 17:00:00 24.6 8 Noroeste 17 Sudoeste 0 -- -- 45
2018-05-06 16:00:00 24.1 8 Oeste 18 Sudoeste 0 -- -- 46
2018-05-06 15:00:00 23.2 5 Sudoeste 18 Sudoeste 0 -- -- 48
2018-05-06 14:00:00 22.3 12 Sudoeste 21 Sudoeste 0 -- -- 54
2018-05-06 13:00:00 21.3 11 Sudoeste 20 Sudoeste 0 -- -- 59
2018-05-06 12:00:00 19.5 10 Oeste 24 Oeste 0 -- -- 67
2018-05-06 11:00:00 17.5 9 Oeste 19 Oeste 0 -- -- 77
2018-05-06 10:00:00 15.1 10 Oeste 15 Oeste 0 -- -- 83
2018-05-06 09:00:00 12.3 3 Sudoeste 10 Oeste 0 -- -- 93
2018-05-06 08:00:00 10.2 0 Calma 9 Noroeste 0 -- -- 95
2018-05-06 07:00:00 8.3 4 Oeste 6 Noroeste 0 -- -- 93
2018-05-06 06:00:00 8.9 4 Noroeste 8 Noroeste 0 -- -- 92
2018-05-06 05:00:00 9.2 6 Noroeste 9 Noroeste 0 -- -- 91
2018-05-06 04:00:00 9.8 2 Nordeste 5 Norte 0 -- -- 91
2018-05-06 03:00:00 10.8 0 Calma 6 Sudeste 0 -- -- 88
2018-05-06 02:00:00 12.5 7 Nordeste 10 Nordeste 0 -- -- 88
2018-05-06 01:00:00 13.9 6 Nordeste 13 Este 0 -- -- 86
2018-05-06 00:00:00 14.5 8 Nordeste 15 Este 0 -- -- 86
2018-05-05 23:00:00 15.2 9 Este 13 Este 0 -- -- 85
2018-05-05 22:00:00 16 6 Nordeste 10 Nordeste 0 -- -- 83
2018-05-05 21:00:00 16.8 6 Norte 12 Este 0 -- -- 83
2018-05-05 20:00:00 17.6 9 Este 17 Nordeste 0 -- -- 79
2018-05-05 19:00:00 18.4 9 Nordeste 20 Este 0 -- -- 72
2018-05-05 18:00:00 19.4 13 Este 22 Nordeste 0 -- -- 66
2018-05-05 17:00:00 20.5 14 Este 24 Este 0 -- -- 62
2018-05-05 16:00:00 21.9 9 Sudoeste 23 Sudoeste 0 -- -- 52
2018-05-05 15:00:00 20.9 14 Sudoeste 27 Oeste 0 -- -- 56
2018-05-05 14:00:00 19.2 14 Oeste 27 Sudoeste 0 -- -- 59
2018-05-05 13:00:00 17.2 14 Oeste 29 Oeste 0 -- -- 62
2018-05-05 12:00:00 16.4 18 Oeste 27 Oeste 0 -- -- 64
2018-05-05 11:00:00 14.2 16 Oeste 32 Oeste 0 -- -- 70
2018-05-05 10:00:00 11.7 19 Oeste 30 Oeste 0 -- -- 75
2018-05-05 09:00:00 9.4 13 Oeste 23 Oeste 0 -- -- 82
2018-05-05 08:00:00 7.8 8 Oeste 26 Oeste 0 -- -- 86
2018-05-05 07:00:00 7.3 9 Oeste 23 Oeste 0 -- -- 87
2018-05-05 06:00:00 7.5 8 Oeste 22 Oeste 0 -- -- 86
2018-05-05 05:00:00 7.7 10 Oeste 22 Oeste 0 -- -- 84
2018-05-05 04:00:00 8.1 12 Oeste 28 Oeste 0 -- -- 82
2018-05-05 03:00:00 8.4 17 Oeste 34 Oeste 0 -- -- 81
2018-05-05 02:00:00 8.8 18 Oeste 35 Oeste 0 -- -- 79
2018-05-05 01:00:00 9.3 12 Oeste 33 Oeste 0 -- -- 77
2018-05-05 00:00:00 10.3 14 Oeste 35 Oeste 0 -- -- 73
2018-05-04 23:00:00 10.9 18 Oeste 31 Oeste 0 -- -- 70
2018-05-04 22:00:00 12 17 Oeste 37 Oeste 0 -- -- 66
2018-05-04 21:00:00 13.9 21 Oeste 43 Sudoeste 0 -- -- 62
2018-05-04 20:00:00 15.6 23 Oeste 49 Oeste 0 -- -- 59
2018-05-04 19:00:00 17.3 21 Oeste 46 Sudoeste 0 -- -- 53
2018-05-04 18:00:00 18.1 24 Oeste 48 Oeste 0 -- -- 50
2018-05-04 17:00:00 19.8 20 Oeste 45 Oeste 0 -- -- 48
2018-05-04 16:00:00 20.1 24 Oeste 47 Oeste 0 -- -- 45
2018-05-04 15:00:00 19.9 24 Oeste 43 Oeste 0 -- -- 45
2018-05-04 14:00:00 19.3 21 Oeste 43 Oeste 0 -- -- 50
2018-05-04 13:00:00 18.3 23 Oeste 40 Oeste 0 -- -- 51
2018-05-04 12:00:00 16.7 16 Oeste 35 Oeste 0 -- -- 52
2018-05-04 11:00:00 15 17 Oeste 32 Oeste 0 -- -- 57
2018-05-04 10:00:00 12.8 19 Oeste 32 Oeste 0 -- -- 62
2018-05-04 09:00:00 10.1 14 Oeste 30 Oeste 0 -- -- 77
2018-05-04 08:00:00 8.1 19 Noroeste 35 Oeste 0 -- -- 83
2018-05-04 07:00:00 7.1 19 Oeste 35 Noroeste 0 -- -- 84
2018-05-04 06:00:00 7.3 20 Oeste 36 Oeste 0 -- -- 83
2018-05-04 05:00:00 7.3 18 Oeste 33 Oeste 0 -- -- 81
2018-05-04 04:00:00 7.3 22 Oeste 38 Noroeste 0 -- -- 78
2018-05-04 03:00:00 7.4 18 Oeste 41 Oeste 0 -- -- 76
2018-05-04 02:00:00 7.6 19 Oeste 33 Oeste 0 -- -- 77
2018-05-04 01:00:00 7.6 21 Oeste 33 Oeste 0 -- -- 74
2018-05-04 00:00:00 7.8 24 Noroeste 40 Oeste 0 -- -- 72
2018-05-03 23:00:00 8.6 23 Oeste 41 Oeste 0 -- -- 69
2018-05-03 22:00:00 9.6 24 Noroeste 39 Noroeste 0 -- -- 66
2018-05-03 21:00:00 11.7 27 Noroeste 41 Noroeste 0 -- -- 58
2018-05-03 20:00:00 13.9 30 Noroeste 45 Noroeste 0 -- -- 52
2018-05-03 19:00:00 14.6 32 Noroeste 49 Noroeste 0 -- -- 50
2018-05-03 18:00:00 15.9 32 Noroeste 44 Noroeste 0 -- -- 47
2018-05-03 17:00:00 17.5 27 Noroeste 51 Noroeste 0 -- -- 45
2018-05-03 16:00:00 18.4 29 Noroeste 50 Oeste 0 -- -- 47
2018-05-03 15:00:00 17.8 28 Noroeste 47 Oeste 0 -- -- 48
2018-05-03 14:00:00 17.1 30 Noroeste 45 Noroeste 0 -- -- 48
2018-05-03 13:00:00 16.4 30 Noroeste 47 Noroeste 0 -- -- 49
2018-05-03 12:00:00 15.3 30 Noroeste 52 Noroeste 0 -- -- 49
2018-05-03 11:00:00 13.3 30 Oeste 55 Oeste 0 -- -- 57
2018-05-03 10:00:00 12.1 38 Oeste 58 Oeste 0 -- -- 66
2018-05-03 09:00:00 10.9 29 Oeste 53 Oeste 0 -- -- 68
2018-05-03 08:00:00 10.5 33 Oeste 55 Noroeste 0 -- -- 74
2018-05-03 07:00:00 10.8 27 Oeste 48 Oeste 0 -- -- 78
2018-05-03 06:00:00 10.1 19 Oeste 41 Noroeste 0 -- -- 86
2018-05-03 05:00:00 10.4 26 Oeste 43 Oeste 0 -- -- 87
2018-05-03 04:00:00 9.9 20 Oeste 31 Oeste 0 -- -- 89
2018-05-03 03:00:00 10.2 14 Oeste 32 Oeste 0 -- -- 85
2018-05-03 02:00:00 10.8 12 Oeste 31 Oeste 0 -- -- 81
2018-05-03 01:00:00 11.2 19 Oeste 37 Noroeste 0 -- -- 75
2018-05-03 00:00:00 11 18 Oeste 32 Oeste 0 -- -- 74
2018-05-02 23:00:00 12 17 Oeste 30 Oeste 0 -- -- 70
2018-05-02 22:00:00 12.7 17 Oeste 29 Oeste 0 -- -- 65
2018-05-02 21:00:00 13.8 18 Oeste 41 Noroeste 0 -- -- 59
2018-05-02 20:00:00 15.4 27 Oeste 48 Oeste 0 -- -- 53
2018-05-02 19:00:00 16.9 23 Oeste 42 Oeste 0 -- -- 50
2018-05-02 18:00:00 18.9 23 Oeste 37 Oeste 0 -- -- 43
2018-05-02 17:00:00 17.1 18 Oeste 36 Sudoeste 0 -- -- 47
2018-05-02 16:00:00 17.2 21 Oeste 41 Sudoeste 0 -- -- 45
2018-05-02 15:00:00 17.1 21 Oeste 42 Noroeste 0 -- -- 45
2018-05-02 14:00:00 16.5 24 Oeste 42 Oeste 0 -- -- 41
2018-05-02 13:00:00 16.1 21 Oeste 38 Noroeste 0 -- -- 43
2018-05-02 12:00:00 14.8 17 Oeste 26 Sudoeste 0 -- -- 48
2018-05-02 11:00:00 12.2 14 Sudoeste 19 Sudoeste 0 -- -- 59
2018-05-02 10:00:00 9.4 5 Sudoeste 12 Sudoeste 0 -- -- 67
2018-05-02 09:00:00 6.3 6 Oeste 9 Oeste 0 -- -- 70
2018-05-02 08:00:00 3.1 3 Oeste 8 Oeste 0 -- -- 84
2018-05-02 07:00:00 1.3 0 Calma 7 Noroeste 0 -- -- 87
2018-05-02 06:00:00 1.5 4 Noroeste 5 Noroeste 0 -- -- 87
2018-05-02 05:00:00 2.4 0 Calma 10 Noroeste 0 -- -- 83
2018-05-02 04:00:00 2.5 5 Noroeste 8 Noroeste 0 -- -- 84
2018-05-02 03:00:00 3.2 0 Calma 5 Oeste 0 -- -- 82
2018-05-02 02:00:00 3.7 2 Noroeste 4 Oeste 0 -- -- 82
2018-05-02 01:00:00 4.9 2 Noroeste 6 Noroeste 0 -- -- 76
2018-05-02 00:00:00 6.3 2 Noroeste 6 Oeste 0 -- -- 70
2018-05-01 23:00:00 7.1 3 Oeste 19 Oeste 0 -- -- 70
2018-05-01 22:00:00 8.6 9 Oeste 21 Oeste 0 -- -- 64
2018-05-01 21:00:00 10.9 11 Oeste 33 Oeste 0 -- -- 55
2018-05-01 20:00:00 13.5 19 Oeste 37 Oeste 0 -- -- 49
2018-05-01 19:00:00 14.8 19 Oeste 42 Oeste 0 -- -- 49
2018-05-01 18:00:00 15.6 24 Oeste 41 Oeste 0 -- -- 41
2018-05-01 17:00:00 15.7 26 Oeste 43 Oeste 0 -- -- 41
2018-05-01 16:00:00 15.9 19 Oeste 40 Oeste 0 -- -- 42
2018-05-01 15:00:00 15.1 20 Oeste 39 Oeste 0 -- -- 42
2018-05-01 14:00:00 14.7 21 Oeste 39 Oeste 0 -- -- 48
2018-05-01 13:00:00 14.4 16 Oeste 31 Oeste 0 -- -- 52
2018-05-01 12:00:00 13.3 16 Noroeste 27 Noroeste 0 -- -- 52
2018-05-01 11:00:00 11.7 15 Noroeste 31 Oeste 0 -- -- 59
2018-05-01 10:00:00 9.1 16 Oeste 30 Oeste 0 -- -- 77
2018-05-01 09:00:00 7 12 Oeste 25 Oeste 0 -- -- 84
2018-05-01 08:00:00 5.1 13 Noroeste 22 Noroeste 0 -- -- 90
2018-05-01 07:00:00 4.3 15 Oeste 30 Oeste 0 -- -- 92
2018-05-01 06:00:00 4.3 13 Oeste 24 Oeste 0 -- -- 92
2018-05-01 05:00:00 4.4 12 Oeste 23 Oeste 0 -- -- 90
2018-05-01 04:00:00 4.5 13 Oeste 23 Oeste 0 -- -- 90
2018-05-01 03:00:00 4.7 11 Oeste 19 Oeste 0 -- -- 89
2018-05-01 02:00:00 5.2 6 Oeste 18 Oeste 0 -- -- 87
2018-05-01 01:00:00 6 9 Oeste 22 Oeste 0 -- -- 85
2018-05-01 00:00:00 6.2 8 Oeste 18 Oeste 0 -- -- 81
2018-04-30 23:00:00 7.4 13 Noroeste 29 Noroeste 0 -- -- 75
2018-04-30 22:00:00 8.9 12 Oeste 23 Noroeste 0 -- -- 68
2018-04-30 21:00:00 10.4 18 Sudoeste 32 Sudoeste 0 -- -- 63
2018-04-30 20:00:00 11.2 18 Sudoeste 34 Sudoeste 0 -- -- 62
2018-04-30 19:00:00 14.5 7 Noroeste 18 Oeste 0 -- -- 45
2018-04-30 18:00:00 14.8 8 Oeste 20 Noroeste 0 -- -- 43
2018-04-30 17:00:00 14.7 8 Oeste 21 Oeste 0 -- -- 47
2018-04-30 16:00:00 14.4 5 Noroeste 22 Oeste 0 -- -- 48
2018-04-30 15:00:00 14.4 12 Oeste 20 Sudoeste 0 -- -- 51
2018-04-30 14:00:00 13.7 5 Sudeste 27 Sudoeste 0 -- -- 54
2018-04-30 13:00:00 12.9 12 Sudoeste 22 Sudoeste 0 -- -- 60
2018-04-30 12:00:00 11.6 12 Oeste 27 Oeste 0 -- -- 62
2018-04-30 11:00:00 10.5 14 Oeste 26 Sudoeste 0 -- -- 65
2018-04-30 10:00:00 8.9 12 Oeste 19 Oeste 0 -- -- 72
2018-04-30 09:00:00 6.9 6 Oeste 9 Sudoeste 0 -- -- 82
2018-04-30 08:00:00 4.5 0 Calma 6 Nordeste 0 -- -- 92
2018-04-30 07:00:00 3.6 3 Nordeste 9 Este 0 -- -- 92
2018-04-30 06:00:00 4.2 3 Oeste 8 Oeste 0 -- -- 93
2018-04-30 05:00:00 4.4 2 Sudeste 8 Sudoeste 0 -- -- 92
2018-04-30 04:00:00 5.2 2 Norte 6 Sudeste 0 -- -- 93
2018-04-30 03:00:00 5.3 5 Sudeste 10 Sudeste 0 -- -- 91
2018-04-30 02:00:00 6 0 Calma 4 Oeste 0 -- -- 90
2018-04-30 01:00:00 6.3 4 Oeste 8 Sur 0 -- -- 89
2018-04-30 00:00:00 7.3 5 Sur 24 Noroeste 0 -- -- 84
2018-04-29 23:00:00 8.8 16 Noroeste 24 Noroeste 0 -- -- 83
2018-04-29 22:00:00 9.5 5 Noroeste 10 Norte 0 -- -- 85
2018-04-29 21:00:00 10.7 5 Sudoeste 12 Sudoeste 0 -- -- 81
2018-04-29 20:00:00 11.8 3 Oeste 26 Noroeste 0 -- -- 75
2018-04-29 19:00:00 12 18 Noroeste 27 Noroeste 0 -- -- 74
2018-04-29 18:00:00 10.4 8 Oeste 38 Oeste 1.8 -- -- 85
2018-04-29 17:00:00 9.3 31 Oeste 51 Oeste 0 -- -- 79
2018-04-29 16:00:00 11.8 14 Norte 24 Noroeste 0 -- -- 73
2018-04-29 15:00:00 12.2 7 Oeste 27 Noroeste 0 -- -- 71
2018-04-29 14:00:00 11.1 17 Noroeste 37 Oeste 0 -- -- 73
2018-04-29 13:00:00 11.7 29 Oeste 60 Sudoeste 0.2 -- -- 71
2018-04-29 12:00:00 13.6 25 Sudoeste 35 Sudoeste 0.6 -- -- 70
2018-04-29 11:00:00 13.5 12 Sudoeste 22 Sudoeste 0 -- -- 71
2018-04-29 10:00:00 12.1 9 Sur 13 Sudoeste 0 -- -- 74
2018-04-29 09:00:00 11 0 Calma 6 Sur 0 -- -- 93
2018-04-29 08:00:00 10.4 0 Calma 9 Sudeste 0 -- -- 92
2018-04-29 07:00:00 10.6 8 Sudeste 12 Sudeste 0 -- -- 91
2018-04-29 06:00:00 10.7 3 Este 12 Sudoeste 0 -- -- 90
2018-04-29 05:00:00 11.3 6 Sudoeste 14 Sudeste 0 -- -- 84
2018-04-29 04:00:00 13.1 9 Sur 17 Sudeste 0.4 -- -- 94
2018-04-29 03:00:00 13.3 3 Este 10 Sudeste 0.4 -- -- 94
2018-04-29 02:00:00 13.3 2 Sudoeste 19 Este 0 -- -- 94
2018-04-29 01:00:00 13.3 15 Este 22 Este 0 -- -- 93
2018-04-29 00:00:00 13.4 15 Este 26 Este 0 -- -- 93
2018-04-28 23:00:00 13.7 14 Este 22 Este 0 -- -- 92
2018-04-28 22:00:00 14.3 10 Este 28 Este 10 -- -- 90
2018-04-28 21:00:00 15.3 18 Sudeste 29 Este 2.4 -- -- 89
2018-04-28 20:00:00 15.8 12 Nordeste 22 Este 0 -- -- 80
2018-04-28 19:00:00 17.2 9 Nordeste 20 Este 3.2 -- -- 80
2018-04-28 18:00:00 17.1 11 Este 24 Este 8 -- -- 84
2018-04-28 17:00:00 18 6 Sudoeste 28 Este 1.6 -- -- 80
2018-04-28 16:00:00 19 18 Este 31 Sudeste 0 -- -- 69
2018-04-28 15:00:00 19.1 21 Este 34 Este 0 -- -- 70
2018-04-28 14:00:00 18.2 22 Sudeste 34 Este 0 -- -- 76
2018-04-28 13:00:00 17.4 19 Este 34 Este 0 -- -- 79
2018-04-28 12:00:00 16 14 Este 23 Sudeste 0 -- -- 79
2018-04-28 11:00:00 13.6 8 Este 13 Sudeste 0 -- -- 85
2018-04-28 10:00:00 11.9 0 Calma 5 Oeste 0 -- -- 82
2018-04-28 09:00:00 10.7 4 Noroeste 9 Noroeste 0.2 -- -- 85
2018-04-28 08:00:00 9.9 7 Noroeste 11 Noroeste 0 -- -- 87
2018-04-28 07:00:00 10.1 7 Noroeste 13 Oeste 0 -- -- 85
2018-04-28 06:00:00 10.1 8 Noroeste 17 Noroeste 0 -- -- 83
2018-04-28 05:00:00 10.4 9 Noroeste 18 Oeste 0 -- -- 84
2018-04-28 04:00:00 10.7 12 Noroeste 18 Oeste 0 -- -- 84
2018-04-28 03:00:00 10.8 12 Noroeste 20 Noroeste 0 -- -- 85
2018-04-28 02:00:00 10.5 6 Noroeste 12 Noroeste 0 -- -- 86
2018-04-28 01:00:00 11.6 3 Oeste 12 Oeste 0 -- -- 84
2018-04-28 00:00:00 13 6 Oeste 17 Noroeste 0 -- -- 81
2018-04-27 23:00:00 16.1 7 Norte 13 Norte 0 -- -- 83
2018-04-27 22:00:00 16.6 4 Sudoeste 24 Sur 3.6 -- -- 80
2018-04-27 21:00:00 18.5 20 Sudeste 35 Sudeste 0 -- -- 64
2018-04-27 20:00:00 23.2 9 Sur 24 Sudeste 0 -- -- 54
2018-04-27 19:00:00 24.2 8 Sudoeste 17 Oeste 0 -- -- 44
2018-04-27 18:00:00 24.3 9 Sudoeste 14 Sudoeste 0 -- -- 48
2018-04-27 17:00:00 24.1 8 Sudoeste 22 Sudoeste 0 -- -- 51
2018-04-27 16:00:00 23.5 9 Noroeste 16 Noroeste 0 -- -- 52
2018-04-27 15:00:00 23.1 9 Noroeste 24 Oeste 0 -- -- 53
2018-04-27 14:00:00 21.8 9 Noroeste 18 Oeste 0 -- -- 55
2018-04-27 13:00:00 20.9 7 Oeste 14 Oeste 0 -- -- 53
2018-04-27 12:00:00 19.2 7 Noroeste 13 Oeste 0 -- -- 64
2018-04-27 11:00:00 18 2 Noroeste 11 Este 0 -- -- 70
2018-04-27 10:00:00 16.6 5 Este 11 Este 0 -- -- 78
2018-04-27 09:00:00 13.3 4 Sudeste 8 Sur 0 -- -- 88
2018-04-27 08:00:00 12.5 3 Norte 23 Nordeste 0.2 -- -- 89
2018-04-27 07:00:00 10.6 13 Nordeste 21 Este 0 -- -- 91
2018-04-27 06:00:00 9.4 0 Calma 10 Nordeste 0 -- -- 86
2018-04-27 05:00:00 10.4 4 Este 10 Este 0 -- -- 84
2018-04-27 04:00:00 9.5 7 Este 10 Este 0 -- -- 85
2018-04-27 03:00:00 10.1 4 Nordeste 7 Nordeste 0 -- -- 82
2018-04-27 02:00:00 10.5 3 Nordeste 13 Nordeste 0 -- -- 80
2018-04-27 01:00:00 11.8 4 Nordeste 10 Nordeste 0 -- -- 76
2018-04-27 00:00:00 13 4 Este 18 Oeste 0 -- -- 72
2018-04-26 23:00:00 14.3 10 Noroeste 15 Noroeste 0 -- -- 63
2018-04-26 22:00:00 15.7 4 Oeste 23 Noroeste 0 -- -- 59
2018-04-26 21:00:00 17.6 5 Oeste 19 Oeste 0 -- -- 54
2018-04-26 20:00:00 20.1 10 Oeste 21 Sudoeste 0 -- -- 50
2018-04-26 19:00:00 21.3 14 Oeste 28 Oeste 0 -- -- 49
2018-04-26 18:00:00 21.3 16 Oeste 29 Noroeste 0 -- -- 50
2018-04-26 17:00:00 21.2 17 Oeste 30 Oeste 0 -- -- 49
2018-04-26 16:00:00 20.6 15 Oeste 30 Oeste 0 -- -- 52
2018-04-26 15:00:00 20 15 Oeste 29 Oeste 0 -- -- 56
2018-04-26 14:00:00 18.6 18 Oeste 33 Oeste 0 -- -- 58
2018-04-26 13:00:00 17.2 18 Oeste 35 Oeste 0 -- -- 62
2018-04-26 12:00:00 15.9 21 Oeste 36 Oeste 0 -- -- 64
2018-04-26 11:00:00 14.2 21 Oeste -- -- -- -- -- 69
2018-04-26 10:00:00 12.7 22 Oeste 37 Oeste 0 -- -- 75
2018-04-26 09:00:00 11.2 22 Oeste 39 Oeste 0 -- -- 82
2018-04-26 08:00:00 9.9 17 Oeste 31 Oeste 0 -- -- 88
2018-04-26 07:00:00 9.8 14 Oeste 28 Oeste 0 -- -- 89
2018-04-26 06:00:00 10.1 14 Oeste 28 Noroeste 0 -- -- 88
2018-04-26 05:00:00 10.5 16 Oeste 35 Oeste 0 -- -- 87
2018-04-26 04:00:00 10.8 22 Oeste 39 Oeste 0 -- -- 86
2018-04-26 03:00:00 11 21 Oeste 34 Oeste 0 -- -- 84
2018-04-26 02:00:00 11.2 19 Oeste 35 Noroeste 0 -- -- 83
2018-04-26 01:00:00 11.8 20 Oeste 35 Oeste 0 -- -- 81
2018-04-26 00:00:00 12.3 18 Oeste 43 Oeste 0 -- -- 79
2018-04-25 23:00:00 13.1 26 Oeste 46 Oeste 0 -- -- 77
2018-04-25 22:00:00 14.8 30 Oeste 48 Oeste 0 -- -- 72
2018-04-25 21:00:00 17.4 26 Oeste 46 Oeste 0 -- -- 68
2018-04-25 20:00:00 20.3 15 Oeste 31 Oeste 0 -- -- 65
2018-04-25 19:00:00 23.1 16 Oeste 32 Oeste 0 -- -- 60
2018-04-25 18:00:00 25.1 13 Oeste 26 Oeste 0 -- -- 53
2018-04-25 17:00:00 25.2 15 Oeste 26 Oeste 0 -- -- 49
2018-04-25 16:00:00 25.3 11 Oeste 22 Noroeste 0 -- -- 45
2018-04-25 15:00:00 24.3 10 Oeste 17 Oeste 0 -- -- 49
2018-04-25 14:00:00 23.3 10 Oeste 19 Sudoeste 0 -- -- 47
2018-04-25 13:00:00 22.6 12 Sudoeste 21 Oeste 0 -- -- 49
2018-04-25 12:00:00 21.2 8 Oeste 15 Oeste 0 -- -- 55
2018-04-25 11:00:00 19 4 Oeste 14 Sur 0 -- -- 55
2018-04-25 10:00:00 17.2 4 Norte 7 Noroeste 0 -- -- 69
2018-04-25 09:00:00 12.4 4 Nordeste 9 Sur 0 -- -- 90
2018-04-25 08:00:00 9.4 0 Calma 4 Noroeste 0 -- -- 89
2018-04-25 07:00:00 9.2 3 Noroeste 4 Noroeste 0 -- -- 89
2018-04-25 06:00:00 9.8 0 Calma 4 Este 0 -- -- 87
2018-04-25 05:00:00 11 0 Calma 10 Nordeste 0 -- -- 86
2018-04-25 04:00:00 12 7 Este 12 Este 0 -- -- 86
2018-04-25 03:00:00 12.7 11 Nordeste 15 Nordeste 0 -- -- 84
2018-04-25 02:00:00 13.2 8 Nordeste 13 Nordeste 0 -- -- 82
2018-04-25 01:00:00 13 0 Calma 9 Sur 0 -- -- 83
2018-04-25 00:00:00 14.5 2 Este 13 Nordeste 0 -- -- 80
2018-04-24 23:00:00 15.6 8 Nordeste 14 Nordeste 0 -- -- 77
2018-04-24 22:00:00 17 11 Nordeste 13 Nordeste 0 -- -- 72
2018-04-24 21:00:00 20 10 Nordeste 11 Este 0 -- -- 64
2018-04-24 20:00:00 22.9 5 Este 12 Este 0 -- -- 59
2018-04-24 19:00:00 24.1 9 Sudeste 16 Sudeste 0 -- -- 52
2018-04-24 18:00:00 24.4 11 Sudeste 19 Sudeste 0 -- -- 49
2018-04-24 17:00:00 24.4 13 Este 21 Este 0 -- -- 52
2018-04-24 16:00:00 24.1 13 Este 22 Sudeste 0 -- -- 56
2018-04-24 15:00:00 23.3 15 Sudeste 22 Este 0 -- -- 60
2018-04-24 14:00:00 21.9 13 Este 24 Este 0 -- -- 66
2018-04-24 13:00:00 20.8 16 Este 27 Sudeste 0 -- -- 68
2018-04-24 12:00:00 19.4 12 Este 20 Este 0 -- -- 71
2018-04-24 11:00:00 17.9 7 Este 14 Este 0 -- -- 72
2018-04-24 10:00:00 14.5 3 Nordeste 5 Norte 0 -- -- 92
2018-04-24 09:00:00 10.9 0 Calma 2 Nordeste 0 -- -- 97
2018-04-24 08:00:00 8.2 0 Calma 7 Nordeste 0.2 -- -- 96
2018-04-24 07:00:00 8.2 5 Nordeste 8 Nordeste 0 -- -- 95
2018-04-24 06:00:00 8.1 3 Nordeste 10 Nordeste 0 -- -- 95
2018-04-24 05:00:00 8.7 6 Nordeste 10 Nordeste 0 -- -- 95
2018-04-24 04:00:00 9.3 3 Noroeste 4 Noroeste 0 -- -- 95
2018-04-24 03:00:00 9.3 3 Oeste 5 Sudoeste 0 -- -- 94
2018-04-24 02:00:00 10 2 Noroeste 4 Noroeste 0 -- -- 94
2018-04-24 01:00:00 10.8 0 Calma 4 Sudoeste 0 -- -- 93
2018-04-24 00:00:00 11.3 2 Sur 6 Norte 0 -- -- 92